createdAt,value
2023-08-11T00:00:26.443Z,999.90
2023-08-11T00:01:26.444Z,999.93
2023-08-11T00:02:26.478Z,999.87
2023-08-11T00:03:26.445Z,999.91
2023-08-11T00:04:26.381Z,999.90
2023-08-11T00:05:26.361Z,999.88
2023-08-11T00:06:26.425Z,999.86
2023-08-11T00:07:26.330Z,999.86
2023-08-11T00:08:26.324Z,999.89
2023-08-11T00:09:26.308Z,999.93
2023-08-11T00:10:26.296Z,999.96
2023-08-11T00:11:26.285Z,999.96
2023-08-11T00:12:26.277Z,999.99
2023-08-11T00:13:26.269Z,1000.01
2023-08-11T00:14:26.245Z,1000.06
2023-08-11T00:15:26.231Z,1000.04
2023-08-11T00:16:26.216Z,1000.05
2023-08-11T00:17:26.222Z,1000.04
2023-08-11T00:18:26.216Z,1000.05
2023-08-11T00:19:26.177Z,1000.09
2023-08-11T00:20:26.169Z,1000.06
2023-08-11T00:21:26.157Z,1000.05
2023-08-11T00:22:26.151Z,1000.04
2023-08-11T00:23:26.155Z,1000.05
2023-08-11T00:24:26.118Z,1000.07
2023-08-11T00:25:26.118Z,1000.03
2023-08-11T00:26:26.088Z,1000.07
2023-08-11T00:27:26.085Z,1000.08
2023-08-11T00:28:26.064Z,1000.10
2023-08-11T00:29:27.622Z,1000.06
2023-08-11T00:30:26.080Z,1000.10
2023-08-11T00:31:26.066Z,1000.03
2023-08-11T00:32:26.111Z,1000.07
2023-08-11T00:33:26.038Z,1000.06
2023-08-11T00:34:25.981Z,1000.09
2023-08-11T00:35:25.968Z,1000.06
2023-08-11T00:36:25.952Z,1000.07
2023-08-11T00:37:25.936Z,1000.10
2023-08-11T00:38:25.928Z,1000.08
2023-08-11T00:39:25.911Z,1000.09
2023-08-11T00:40:25.934Z,1000.10
2023-08-11T00:41:25.891Z,1000.11
2023-08-11T00:42:25.873Z,1000.13
2023-08-11T00:43:25.866Z,1000.15
2023-08-11T00:44:25.847Z,1000.12
2023-08-11T00:45:25.868Z,1000.14
2023-08-11T00:46:25.827Z,1000.12
2023-08-11T00:47:25.812Z,1000.11
2023-08-11T00:48:25.811Z,1000.14
2023-08-11T00:49:25.778Z,1000.17
2023-08-11T00:50:25.772Z,1000.22
2023-08-11T00:51:25.785Z,1000.17
2023-08-11T00:52:25.742Z,1000.15
2023-08-11T00:53:25.726Z,1000.18
2023-08-11T00:54:25.723Z,1000.19
2023-08-11T00:55:25.700Z,1000.15
2023-08-11T00:56:25.699Z,1000.19
2023-08-11T00:57:25.676Z,1000.16
2023-08-11T00:58:25.662Z,1000.19
2023-08-11T00:59:25.650Z,1000.13
2023-08-11T01:00:25.694Z,1000.17
2023-08-11T01:01:25.679Z,1000.18
2023-08-11T01:02:25.690Z,1000.17
2023-08-11T01:03:25.642Z,1000.18
2023-08-11T01:04:25.592Z,1000.17
2023-08-11T01:05:25.575Z,1000.17
2023-08-11T01:06:25.587Z,1000.15
2023-08-11T01:07:25.554Z,1000.17
2023-08-11T01:08:25.532Z,1000.18
2023-08-11T01:09:25.525Z,1000.12
2023-08-11T01:10:25.508Z,1000.11
2023-08-11T01:11:25.498Z,1000.08
2023-08-11T01:12:25.495Z,1000.03
2023-08-11T01:13:25.464Z,1000.06
2023-08-11T01:14:25.460Z,1000.07
2023-08-11T01:15:25.461Z,1000.07
2023-08-11T01:16:25.472Z,1000.08
2023-08-11T01:17:25.445Z,1000.10
2023-08-11T01:18:25.436Z,1000.08
2023-08-11T01:19:25.385Z,1000.01
2023-08-11T01:20:25.378Z,999.99
2023-08-11T01:21:25.365Z,1000.02
2023-08-11T01:22:25.369Z,999.98
2023-08-11T01:23:25.337Z,1000.00
2023-08-11T01:24:25.321Z,1000.00
2023-08-11T01:25:25.323Z,999.93
2023-08-11T01:26:25.322Z,1000.01
2023-08-11T01:27:25.292Z,999.99
2023-08-11T01:28:25.281Z,1000.01
2023-08-11T01:29:25.301Z,999.99
2023-08-11T01:30:25.246Z,999.98
2023-08-11T01:31:25.241Z,999.94
2023-08-11T01:32:25.306Z,999.87
2023-08-11T01:33:25.204Z,999.96
2023-08-11T01:34:25.192Z,999.93
2023-08-11T01:35:38.460Z,999.94
2023-08-11T01:36:25.162Z,999.94
2023-08-11T01:37:25.152Z,999.92
2023-08-11T01:38:25.146Z,999.94
2023-08-11T01:39:25.126Z,999.99
2023-08-11T01:40:25.144Z,999.97
2023-08-11T01:41:25.097Z,999.98
2023-08-11T01:42:25.091Z,999.94
2023-08-11T01:43:25.076Z,999.97
2023-08-11T01:44:25.061Z,999.96
2023-08-11T01:45:25.049Z,1000.00
2023-08-11T01:46:25.065Z,999.98
2023-08-11T01:47:25.020Z,999.99
2023-08-11T01:48:25.008Z,1000.01
2023-08-11T01:49:24.996Z,999.97
2023-08-11T01:50:24.984Z,999.97
2023-08-11T01:51:24.964Z,999.95
2023-08-11T01:52:24.953Z,999.98
2023-08-11T01:53:24.954Z,999.95
2023-08-11T01:54:24.930Z,999.90
2023-08-11T01:55:24.909Z,999.93
2023-08-11T01:56:24.902Z,999.90
2023-08-11T01:57:24.902Z,999.89
2023-08-11T01:58:24.877Z,999.88
2023-08-11T01:59:24.883Z,999.88
2023-08-11T02:00:24.862Z,999.85
2023-08-11T02:01:24.837Z,999.85
2023-08-11T02:02:24.829Z,999.84
2023-08-11T02:03:24.922Z,999.84
2023-08-11T02:04:24.795Z,999.83
2023-08-11T02:05:24.781Z,999.84
2023-08-11T02:06:24.785Z,999.80
2023-08-11T02:07:24.761Z,999.79
2023-08-11T02:08:24.745Z,999.80
2023-08-11T02:09:24.734Z,999.77
2023-08-11T02:10:24.877Z,999.80
2023-08-11T02:11:24.705Z,999.77
2023-08-11T02:12:24.690Z,999.80
2023-08-11T02:13:24.671Z,999.77
2023-08-11T02:14:24.687Z,999.76
2023-08-11T02:15:24.674Z,999.77
2023-08-11T02:16:24.652Z,999.78
2023-08-11T02:17:24.620Z,999.76
2023-08-11T02:18:24.609Z,999.80
2023-08-11T02:19:24.592Z,999.79
2023-08-11T02:20:25.338Z,999.78
2023-08-11T02:21:24.559Z,999.83
2023-08-11T02:22:24.584Z,999.81
2023-08-11T02:23:24.536Z,999.77
2023-08-11T02:24:24.525Z,999.82
2023-08-11T02:25:24.537Z,999.82
2023-08-11T02:26:24.579Z,999.74
2023-08-11T02:27:24.480Z,999.75
2023-08-11T02:28:24.488Z,999.73
2023-08-11T02:29:24.454Z,999.75
2023-08-11T02:30:24.443Z,999.78
2023-08-11T02:31:24.462Z,999.75
2023-08-11T02:32:24.413Z,999.74
2023-08-11T02:33:24.414Z,999.78
2023-08-11T02:34:24.394Z,999.74
2023-08-11T02:35:24.388Z,999.77
2023-08-11T02:36:24.365Z,999.77
2023-08-11T02:37:24.342Z,999.77
2023-08-11T02:38:24.337Z,999.77
2023-08-11T02:39:24.317Z,999.76
2023-08-11T02:40:24.310Z,999.75
2023-08-11T02:41:24.290Z,999.78
2023-08-11T02:42:24.335Z,999.78
2023-08-11T02:43:24.272Z,999.79
2023-08-11T02:44:24.250Z,999.76
2023-08-11T02:45:24.265Z,999.74
2023-08-11T02:46:24.288Z,999.79
2023-08-11T02:47:24.219Z,999.79
2023-08-11T02:48:24.195Z,999.76
2023-08-11T02:49:24.191Z,999.75
2023-08-11T02:50:24.275Z,999.75
2023-08-11T02:51:24.172Z,999.77
2023-08-11T02:52:24.248Z,999.75
2023-08-11T02:53:24.228Z,999.72
2023-08-11T02:54:24.121Z,999.72
2023-08-11T02:55:24.107Z,999.74
2023-08-11T02:56:24.088Z,999.69
2023-08-11T02:57:24.074Z,999.73
2023-08-11T02:58:24.065Z,999.75
2023-08-11T02:59:24.044Z,999.71
2023-08-11T03:00:24.039Z,999.77
2023-08-11T03:01:24.059Z,999.73
2023-08-11T03:02:24.025Z,999.72
2023-08-11T03:03:24.095Z,999.70
2023-08-11T03:04:23.981Z,999.73
2023-08-11T03:05:23.966Z,999.70
2023-08-11T03:06:23.956Z,999.68
2023-08-11T03:07:23.993Z,999.71
2023-08-11T03:08:23.926Z,999.73
2023-08-11T03:09:23.915Z,999.72
2023-08-11T03:10:23.908Z,999.72
2023-08-11T03:11:23.890Z,999.81
2023-08-11T03:12:23.874Z,999.79
2023-08-11T03:13:23.860Z,999.76
2023-08-11T03:14:23.846Z,999.79
2023-08-11T03:15:23.832Z,999.77
2023-08-11T03:16:23.823Z,999.76
2023-08-11T03:17:23.802Z,999.75
2023-08-11T03:18:23.794Z,999.67
2023-08-11T03:19:23.773Z,999.70
2023-08-11T03:20:23.765Z,999.66
2023-08-11T03:21:23.747Z,999.69
2023-08-11T03:22:23.740Z,999.67
2023-08-11T03:23:23.728Z,999.66
2023-08-11T03:24:23.712Z,999.60
2023-08-11T03:25:23.696Z,999.61
2023-08-11T03:26:23.691Z,999.61
2023-08-11T03:27:23.668Z,999.65
2023-08-11T03:28:23.657Z,999.66
2023-08-11T03:29:23.641Z,999.61
2023-08-11T03:30:23.652Z,999.63
2023-08-11T03:31:23.615Z,999.68
2023-08-11T03:32:23.655Z,999.65
2023-08-11T03:33:23.599Z,999.66
2023-08-11T03:34:23.574Z,999.64
2023-08-11T03:35:23.575Z,999.67
2023-08-11T03:36:23.545Z,999.64
2023-08-11T03:37:23.548Z,999.65
2023-08-11T03:38:23.519Z,999.60
2023-08-11T03:39:23.511Z,999.62
2023-08-11T03:40:23.496Z,999.63
2023-08-11T03:41:23.492Z,999.65
2023-08-11T03:42:23.465Z,999.65
2023-08-11T03:43:23.463Z,999.67
2023-08-11T03:44:23.444Z,999.64
2023-08-11T03:45:23.428Z,999.63
2023-08-11T03:46:23.458Z,999.67
2023-08-11T03:47:23.393Z,999.63
2023-08-11T03:48:23.385Z,999.65
2023-08-11T03:49:23.368Z,999.69
2023-08-11T03:50:23.414Z,999.66
2023-08-11T03:51:23.358Z,999.64
2023-08-11T03:52:23.328Z,999.67
2023-08-11T03:53:23.327Z,999.65
2023-08-11T03:54:31.915Z,999.67
2023-08-11T03:55:23.286Z,999.68
2023-08-11T03:56:23.271Z,999.65
2023-08-11T03:57:23.261Z,999.71
2023-08-11T03:58:23.253Z,999.73
2023-08-11T03:59:23.235Z,999.71
2023-08-11T04:00:23.227Z,999.72
2023-08-11T04:01:23.233Z,999.74
2023-08-11T04:02:23.201Z,999.80
2023-08-11T04:03:23.846Z,999.81
2023-08-11T04:04:23.173Z,999.88
2023-08-11T04:05:23.210Z,999.86
2023-08-11T04:06:23.155Z,999.84
2023-08-11T04:07:23.152Z,999.85
2023-08-11T04:08:23.124Z,999.84
2023-08-11T04:09:23.097Z,999.80
2023-08-11T04:10:23.712Z,999.81
2023-08-11T04:11:23.211Z,999.83
2023-08-11T04:12:23.059Z,999.83
2023-08-11T04:13:23.048Z,999.80
2023-08-11T04:14:23.035Z,999.80
2023-08-11T04:17:23.754Z,999.76
2023-08-11T04:18:24.526Z,999.76
2023-08-11T04:19:22.961Z,999.77
2023-08-11T04:20:22.962Z,999.83
2023-08-11T04:21:22.935Z,999.82
2023-08-11T04:22:37.267Z,999.80
2023-08-11T04:23:22.918Z,999.81
2023-08-11T04:24:22.899Z,999.84
2023-08-11T04:25:22.886Z,999.84
2023-08-11T04:26:22.864Z,999.84
2023-08-11T04:27:22.855Z,999.83
2023-08-11T04:28:22.883Z,999.83
2023-08-11T04:32:22.783Z,999.89
2023-08-11T04:33:22.856Z,999.92
2023-08-11T04:34:22.770Z,999.89
2023-08-11T04:35:22.741Z,999.88
2023-08-11T04:36:22.731Z,999.93
2023-08-11T04:37:22.720Z,999.90
2023-08-11T04:38:22.802Z,999.92
2023-08-11T04:39:22.757Z,999.94
2023-08-11T04:40:23.070Z,999.93
2023-08-11T04:41:22.654Z,999.89
2023-08-11T04:42:22.658Z,999.93
2023-08-11T04:43:22.629Z,999.91
2023-08-11T04:44:22.626Z,999.90
2023-08-11T04:45:22.687Z,999.88
2023-08-11T04:46:22.690Z,999.86
2023-08-11T04:47:22.578Z,999.93
2023-08-11T04:48:22.564Z,999.85
2023-08-11T04:49:22.551Z,999.86
2023-08-11T04:50:22.577Z,999.86
2023-08-11T04:51:22.516Z,999.86
2023-08-11T04:52:22.531Z,999.90
2023-08-11T04:53:22.658Z,999.88
2023-08-11T04:54:22.479Z,999.87
2023-08-11T04:55:22.977Z,999.97
2023-08-11T04:56:22.457Z,999.93
2023-08-11T04:57:22.438Z,999.92
2023-08-11T04:58:22.431Z,999.95
2023-08-11T04:59:22.431Z,999.92
2023-08-11T05:00:22.406Z,999.89
2023-08-11T05:01:22.405Z,999.92
2023-08-11T05:02:22.391Z,999.95
2023-08-11T05:03:22.445Z,999.93
2023-08-11T05:04:22.363Z,999.97
2023-08-11T05:05:22.375Z,999.94
2023-08-11T05:06:22.321Z,999.96
2023-08-11T05:07:22.325Z,999.98
2023-08-11T05:08:22.296Z,999.94
2023-08-11T05:09:22.292Z,999.99
2023-08-11T05:10:22.277Z,999.96
2023-08-11T05:11:22.254Z,999.97
2023-08-11T05:12:22.294Z,999.96
2023-08-11T05:13:22.236Z,999.96
2023-08-11T05:14:22.225Z,1000.01
2023-08-11T05:15:22.192Z,1000.02
2023-08-11T05:16:22.215Z,1000.00
2023-08-11T05:17:28.809Z,999.99
2023-08-11T05:18:34.591Z,1000.01
2023-08-11T05:19:26.471Z,1000.03
2023-08-11T05:20:22.133Z,1000.05
2023-08-11T05:21:22.138Z,1000.10
2023-08-11T05:22:22.760Z,1000.07
2023-08-11T05:23:23.873Z,1000.12
2023-08-11T05:24:22.085Z,1000.10
2023-08-11T05:25:22.067Z,1000.16
2023-08-11T05:26:22.070Z,1000.16
2023-08-11T05:27:22.060Z,1000.20
2023-08-11T05:28:22.033Z,1000.24
2023-08-11T05:29:22.052Z,1000.21
2023-08-11T05:30:22.014Z,1000.24
2023-08-11T05:31:22.076Z,1000.28
2023-08-11T05:32:21.969Z,1000.27
2023-08-11T05:33:21.969Z,1000.25
2023-08-11T05:34:21.948Z,1000.30
2023-08-11T05:35:21.929Z,1000.33
2023-08-11T05:36:21.938Z,1000.24
2023-08-11T05:37:21.902Z,1000.27
2023-08-11T05:38:21.926Z,1000.29
2023-08-11T05:39:21.891Z,1000.29
2023-08-11T05:40:21.960Z,1000.32
2023-08-11T05:41:21.915Z,1000.32
2023-08-11T05:42:21.953Z,1000.30
2023-08-11T05:43:21.835Z,1000.30
2023-08-11T05:44:21.815Z,1000.29
2023-08-11T05:45:21.847Z,1000.34
2023-08-11T05:46:21.815Z,1000.33
2023-08-11T05:47:21.775Z,1000.36
2023-08-11T05:48:21.767Z,1000.33
2023-08-11T05:49:21.750Z,1000.27
2023-08-11T05:50:21.740Z,1000.28
2023-08-11T05:51:21.751Z,1000.29
2023-08-11T05:52:22.415Z,1000.26
2023-08-11T05:53:21.702Z,1000.25
2023-08-11T05:54:21.793Z,1000.29
2023-08-11T05:55:21.751Z,1000.29
2023-08-11T05:56:21.680Z,1000.30
2023-08-11T05:57:21.652Z,1000.25
2023-08-11T05:58:21.704Z,1000.27
2023-08-11T05:59:21.632Z,1000.24
2023-08-11T06:00:21.619Z,1000.26
2023-08-11T06:01:21.674Z,1000.25
2023-08-11T06:02:21.601Z,1000.29
2023-08-11T06:03:21.682Z,1000.29
2023-08-11T06:04:21.575Z,1000.31
2023-08-11T06:05:21.569Z,1000.37
2023-08-11T06:06:21.550Z,1000.33
2023-08-11T06:07:21.542Z,1000.35
2023-08-11T06:08:21.530Z,1000.30
2023-08-11T06:09:21.519Z,1000.30
2023-08-11T06:10:21.504Z,1000.30
2023-08-11T06:11:21.501Z,1000.34
2023-08-11T06:12:21.489Z,1000.32
2023-08-11T06:13:21.469Z,1000.32
2023-08-11T06:14:21.471Z,1000.31
2023-08-11T06:15:21.455Z,1000.32
2023-08-11T06:16:21.465Z,1000.28
2023-08-11T06:17:21.431Z,1000.31
2023-08-11T06:18:21.447Z,1000.33
2023-08-11T06:19:21.457Z,1000.30
2023-08-11T06:20:34.419Z,1000.28
2023-08-11T06:21:21.477Z,1000.27
2023-08-11T06:22:21.381Z,1000.29
2023-08-11T06:23:21.356Z,1000.30
2023-08-11T06:24:21.351Z,1000.34
2023-08-11T06:25:21.335Z,1000.33
2023-08-11T06:26:21.337Z,1000.35
2023-08-11T06:27:21.314Z,1000.34
2023-08-11T06:28:21.305Z,1000.34
2023-08-11T06:29:21.296Z,1000.34
2023-08-11T06:30:21.324Z,1000.36
2023-08-11T06:31:21.328Z,1000.31
2023-08-11T06:32:21.328Z,1000.33
2023-08-11T06:33:21.272Z,1000.33
2023-08-11T06:34:21.242Z,1000.35
2023-08-11T06:35:21.248Z,1000.44
2023-08-11T06:36:22.605Z,1000.35
2023-08-11T06:37:21.217Z,1000.40
2023-08-11T06:38:21.208Z,1000.39
2023-08-11T06:39:21.196Z,1000.39
2023-08-11T06:40:21.187Z,1000.36
2023-08-11T06:41:21.177Z,1000.36
2023-08-11T06:42:21.170Z,1000.37
2023-08-11T06:43:21.154Z,1000.34
2023-08-11T06:44:21.369Z,1000.37
2023-08-11T06:45:21.135Z,1000.39
2023-08-11T06:46:21.199Z,1000.37
2023-08-11T06:47:21.145Z,1000.38
2023-08-11T06:48:21.116Z,1000.43
2023-08-11T06:49:21.099Z,1000.45
2023-08-11T06:50:21.092Z,1000.40
2023-08-11T06:51:21.082Z,1000.47
2023-08-11T06:52:21.072Z,1000.46
2023-08-11T06:53:21.065Z,1000.44
2023-08-11T06:54:21.083Z,1000.49
2023-08-11T06:55:21.085Z,1000.47
2023-08-11T06:56:21.041Z,1000.47
2023-08-11T06:57:21.065Z,1000.44
2023-08-11T06:58:22.703Z,1000.44
2023-08-11T06:59:21.053Z,1000.43
2023-08-11T07:00:21.005Z,1000.44
2023-08-11T07:01:21.056Z,1000.42
2023-08-11T07:02:21.016Z,1000.47
2023-08-11T07:03:21.027Z,1000.50
2023-08-11T07:04:20.971Z,1000.43
2023-08-11T07:05:20.962Z,1000.46
2023-08-11T07:06:20.956Z,1000.48
2023-08-11T07:07:20.946Z,1000.46
2023-08-11T07:08:20.979Z,1000.46
2023-08-11T07:09:20.925Z,1000.47
2023-08-11T07:10:20.926Z,1000.47
2023-08-11T07:11:20.925Z,1000.46
2023-08-11T07:12:20.918Z,1000.45
2023-08-11T07:13:20.909Z,1000.47
2023-08-11T07:14:20.914Z,1000.46
2023-08-11T07:15:20.931Z,1000.48
2023-08-11T07:16:20.960Z,1000.47
2023-08-11T07:17:20.878Z,1000.51
2023-08-11T07:18:20.871Z,1000.52
2023-08-11T07:19:20.882Z,1000.51
2023-08-11T07:20:21.117Z,1000.51
2023-08-11T07:21:20.884Z,1000.54
2023-08-11T07:22:20.908Z,1000.54
2023-08-11T07:23:20.836Z,1000.59
2023-08-11T07:24:20.834Z,1000.63
2023-08-11T07:25:20.829Z,1000.65
2023-08-11T07:26:20.895Z,1000.65
2023-08-11T07:27:20.821Z,1000.75
2023-08-11T07:28:20.846Z,1000.78
2023-08-11T07:29:20.818Z,1000.78
2023-08-11T07:30:20.804Z,1000.82
2023-08-11T07:31:20.815Z,1000.77
2023-08-11T07:32:20.795Z,1000.85
2023-08-11T07:33:20.885Z,1000.89
2023-08-11T07:34:20.802Z,1000.89
2023-08-11T07:35:20.781Z,1001.00
2023-08-11T07:36:20.808Z,1001.00
2023-08-11T07:37:20.814Z,1001.04
2023-08-11T07:38:20.772Z,1001.06
2023-08-11T07:39:23.401Z,1001.09
2023-08-11T07:40:20.878Z,1001.07
2023-08-11T07:41:20.761Z,1001.14
2023-08-11T07:42:20.776Z,1001.15
2023-08-11T07:43:20.768Z,1001.14
2023-08-11T07:44:20.823Z,1001.13
2023-08-11T07:45:20.758Z,1001.13
2023-08-11T07:46:20.908Z,1001.16
2023-08-11T07:47:20.761Z,1001.20
2023-08-11T07:48:20.766Z,1001.15
2023-08-11T07:49:20.756Z,1001.20
2023-08-11T07:50:20.758Z,1001.20
2023-08-11T07:51:20.750Z,1001.24
2023-08-11T07:52:20.763Z,1001.23
2023-08-11T07:53:21.569Z,1001.28
2023-08-11T07:54:21.991Z,1001.34
2023-08-11T07:55:20.863Z,1001.32
2023-08-11T07:56:20.758Z,1001.37
2023-08-11T07:57:20.757Z,1001.37
2023-08-11T07:58:20.755Z,1001.32
2023-08-11T07:59:20.792Z,1001.35
2023-08-11T08:00:20.760Z,1001.34
2023-08-11T08:01:20.774Z,1001.41
2023-08-11T08:02:20.761Z,1001.40
2023-08-11T08:03:20.834Z,1001.42
2023-08-11T08:04:20.791Z,1001.43
2023-08-11T08:05:20.763Z,1001.43
2023-08-11T08:06:20.768Z,1001.35
2023-08-11T08:07:20.758Z,1001.36
2023-08-11T08:08:20.758Z,1001.35
2023-08-11T08:09:20.755Z,1001.39
2023-08-11T08:10:20.757Z,1001.42
2023-08-11T08:11:20.760Z,1001.40
2023-08-11T08:12:20.770Z,1001.44
2023-08-11T08:13:20.768Z,1001.42
2023-08-11T08:14:20.768Z,1001.42
2023-08-11T08:15:20.778Z,1001.39
2023-08-11T08:16:20.848Z,1001.44
2023-08-11T08:17:20.775Z,1001.42
2023-08-11T08:18:20.777Z,1001.47
2023-08-11T08:19:20.786Z,1001.49
2023-08-11T08:20:20.781Z,1001.48
2023-08-11T08:21:20.799Z,1001.44
2023-08-11T08:22:20.789Z,1001.44
2023-08-11T08:23:20.788Z,1001.48
2023-08-11T08:24:20.792Z,1001.52
2023-08-11T08:25:20.826Z,1001.52
2023-08-11T08:26:20.836Z,1001.49
2023-08-11T08:27:20.805Z,1001.48
2023-08-11T08:28:20.789Z,1001.51
2023-08-11T08:29:20.807Z,1001.47
2023-08-11T08:30:20.900Z,1001.45
2023-08-11T08:31:20.875Z,1001.42
2023-08-11T08:32:20.815Z,1001.45
2023-08-11T08:33:20.929Z,1001.43
2023-08-11T08:34:20.820Z,1001.42
2023-08-11T08:35:20.830Z,1001.40
2023-08-11T08:36:20.817Z,1001.35
2023-08-11T08:37:20.834Z,1001.36
2023-08-11T08:38:20.830Z,1001.37
2023-08-11T08:39:20.831Z,1001.37
2023-08-11T08:40:20.836Z,1001.40
2023-08-11T08:41:20.842Z,1001.34
2023-08-11T08:42:20.847Z,1001.38
2023-08-11T08:43:20.853Z,1001.38
2023-08-11T08:44:20.853Z,1001.54
2023-08-11T08:45:20.847Z,1001.55
2023-08-11T08:46:20.905Z,1001.64
2023-08-11T08:47:20.853Z,1001.64
2023-08-11T08:48:20.851Z,1001.61
2023-08-11T08:49:20.858Z,1001.63
2023-08-11T08:50:20.870Z,1001.68
2023-08-11T08:51:20.864Z,1001.75
2023-08-11T08:52:20.873Z,1001.77
2023-08-11T08:53:20.878Z,1001.76
2023-08-11T08:54:20.880Z,1001.82
2023-08-11T08:55:20.879Z,1001.81
2023-08-11T08:56:20.890Z,1001.83
2023-08-11T08:57:20.895Z,1001.85
2023-08-11T08:58:20.887Z,1001.81
2023-08-11T08:59:20.908Z,1001.85
2023-08-11T09:00:20.910Z,1001.79
2023-08-11T09:01:20.953Z,1001.83
2023-08-11T09:02:20.955Z,1001.86
2023-08-11T09:03:20.993Z,1001.86
2023-08-11T09:04:21.067Z,1001.79
2023-08-11T09:05:20.924Z,1001.77
2023-08-11T09:06:20.932Z,1001.78
2023-08-11T09:07:20.965Z,1001.83
2023-08-11T09:08:20.938Z,1001.80
2023-08-11T09:09:20.952Z,1001.79
2023-08-11T09:10:20.977Z,1001.73
2023-08-11T09:11:20.980Z,1001.71
2023-08-11T09:12:21.513Z,1001.72
2023-08-11T09:13:21.618Z,1001.76
2023-08-11T09:14:20.955Z,1001.77
2023-08-11T09:15:20.965Z,1001.76
2023-08-11T09:16:21.839Z,1001.76
2023-08-11T09:17:21.016Z,1001.77
2023-08-11T09:18:20.987Z,1001.76
2023-08-11T09:19:20.990Z,1001.78
2023-08-11T09:20:21.027Z,1001.71
2023-08-11T09:21:20.990Z,1001.72
2023-08-11T09:22:21.001Z,1001.76
2023-08-11T09:23:21.359Z,1001.80
2023-08-11T09:24:21.021Z,1001.83
2023-08-11T09:25:21.021Z,1001.76
2023-08-11T09:26:21.050Z,1001.77
2023-08-11T09:27:21.036Z,1001.76
2023-08-11T09:28:21.096Z,1001.77
2023-08-11T09:29:21.124Z,1001.76
2023-08-11T09:30:21.051Z,1001.67
2023-08-11T09:31:21.134Z,1001.65
2023-08-11T09:32:21.520Z,1001.72
2023-08-11T09:33:21.068Z,1001.70
2023-08-11T09:34:21.087Z,1001.70
2023-08-11T09:35:21.124Z,1001.69
2023-08-11T09:36:21.103Z,1001.71
2023-08-11T09:37:21.174Z,1001.71
2023-08-11T09:38:21.166Z,1001.72
2023-08-11T09:39:21.115Z,1001.70
2023-08-11T09:40:21.121Z,1001.68
2023-08-11T09:41:21.178Z,1001.72
2023-08-11T09:42:21.134Z,1001.71
2023-08-11T09:43:21.191Z,1001.74
2023-08-11T09:44:21.256Z,1001.80
2023-08-11T09:45:21.170Z,1001.74
2023-08-11T09:46:26.805Z,1001.71
2023-08-11T09:47:22.845Z,1001.74
2023-08-11T09:48:21.195Z,1001.75
2023-08-11T09:49:21.227Z,1001.74
2023-08-11T09:50:21.363Z,1001.74
2023-08-11T09:51:21.320Z,1001.79
2023-08-11T09:52:21.725Z,1001.75
2023-08-11T09:54:54.421Z,1001.81
2023-08-11T09:55:54.391Z,1001.84
2023-08-11T09:57:59.910Z,1001.81
2023-08-11T09:58:59.911Z,1001.76
2023-08-11T10:01:18.625Z,1001.75
2023-08-11T10:02:04.486Z,1001.74
2023-08-11T10:03:04.521Z,1001.74
2023-08-11T10:04:04.502Z,1001.75
2023-08-11T10:05:04.484Z,1001.81
2023-08-11T10:06:04.467Z,1001.77
2023-08-11T10:07:04.482Z,1001.81
2023-08-11T10:08:04.480Z,1001.83
2023-08-11T10:09:04.480Z,1001.84
2023-08-11T10:10:04.499Z,1001.81
2023-08-11T10:11:04.498Z,1001.76
2023-08-11T10:12:04.514Z,1001.74
2023-08-11T10:13:04.516Z,1001.74
2023-08-11T10:14:04.526Z,1001.71
2023-08-11T10:15:04.542Z,1001.75
2023-08-11T10:16:04.568Z,1001.71
2023-08-11T10:17:04.653Z,1001.69
2023-08-11T10:18:04.618Z,1001.70
2023-08-11T10:19:04.588Z,1001.68
2023-08-11T10:20:04.581Z,1001.70
2023-08-11T10:21:04.595Z,1001.73
2023-08-11T10:22:04.676Z,1001.72
2023-08-11T10:23:04.611Z,1001.73
2023-08-11T10:24:04.624Z,1001.77
2023-08-11T10:25:04.645Z,1001.72
2023-08-11T10:26:04.671Z,1001.73
2023-08-11T10:27:06.901Z,1001.72
2023-08-11T10:28:04.665Z,1001.73
2023-08-11T10:29:04.680Z,1001.73
2023-08-11T10:30:04.696Z,1001.70
2023-08-11T10:31:04.740Z,1001.65
2023-08-11T10:32:04.720Z,1001.64
2023-08-11T10:33:06.808Z,1001.64
2023-08-11T10:34:04.733Z,1001.62
2023-08-11T10:35:04.747Z,1001.61
2023-08-11T10:36:04.748Z,1001.60
2023-08-11T10:37:04.772Z,1001.62
2023-08-11T10:38:04.764Z,1001.59
2023-08-11T10:39:04.786Z,1001.58
2023-08-11T10:40:04.795Z,1001.63
2023-08-11T10:41:04.807Z,1001.64
2023-08-11T10:42:04.828Z,1001.66
2023-08-11T10:43:04.821Z,1001.63
2023-08-11T10:44:04.829Z,1001.59
2023-08-11T10:45:04.845Z,1001.59
2023-08-11T10:46:04.859Z,1001.57
2023-08-11T10:47:04.905Z,1001.56
2023-08-11T10:48:04.934Z,1001.49
2023-08-11T10:49:04.908Z,1001.47
2023-08-11T10:50:04.895Z,1001.47
2023-08-11T10:51:04.904Z,1001.47
2023-08-11T10:52:05.042Z,1001.48
2023-08-11T10:53:04.926Z,1001.52
2023-08-11T10:54:04.938Z,1001.58
2023-08-11T10:55:04.948Z,1001.59
2023-08-11T10:56:04.961Z,1001.54
2023-08-11T10:57:05.104Z,1001.55
2023-08-11T10:58:06.797Z,1001.50
2023-08-11T10:59:04.992Z,1001.52
2023-08-11T11:00:05.000Z,1001.54
2023-08-11T11:01:05.033Z,1001.52
2023-08-11T11:02:05.135Z,1001.49
2023-08-11T11:03:05.086Z,1001.50
2023-08-11T11:04:05.164Z,1001.52
2023-08-11T11:05:05.182Z,1001.52
2023-08-11T11:06:05.187Z,1001.57
2023-08-11T11:07:05.189Z,1001.56
2023-08-11T11:08:05.201Z,1001.57
2023-08-11T11:09:05.215Z,1001.61
2023-08-11T11:10:05.211Z,1001.69
2023-08-11T11:11:05.232Z,1001.65
2023-08-11T11:12:05.246Z,1001.67
2023-08-11T11:13:05.242Z,1001.68
2023-08-11T11:14:05.263Z,1001.68
2023-08-11T11:15:05.262Z,1001.67
2023-08-11T11:16:05.346Z,1001.64
2023-08-11T11:17:05.327Z,1001.62
2023-08-11T11:18:05.323Z,1001.59
2023-08-11T11:19:05.315Z,1001.54
2023-08-11T11:20:05.315Z,1001.52
2023-08-11T11:21:05.337Z,1001.50
2023-08-11T11:22:05.384Z,1001.54
2023-08-11T11:23:05.366Z,1001.53
2023-08-11T11:24:05.453Z,1001.47
2023-08-11T11:25:05.373Z,1001.49
2023-08-11T11:26:05.382Z,1001.53
2023-08-11T11:27:05.394Z,1001.52
2023-08-11T11:28:05.405Z,1001.51
2023-08-11T11:29:05.481Z,1001.50
2023-08-11T11:30:05.456Z,1001.45
2023-08-11T11:31:05.438Z,1001.38
2023-08-11T11:32:05.468Z,1001.36
2023-08-11T11:33:05.529Z,1001.32
2023-08-11T11:34:05.508Z,1001.20
2023-08-11T11:35:05.479Z,1001.22
2023-08-11T11:36:05.489Z,1001.17
2023-08-11T11:37:05.531Z,1001.08
2023-08-11T11:38:05.517Z,1001.02
2023-08-11T11:39:06.285Z,1000.98
2023-08-11T11:40:05.546Z,1000.96
2023-08-11T11:41:05.571Z,1000.90
2023-08-11T11:42:05.552Z,1000.86
2023-08-11T11:43:05.570Z,1000.84
2023-08-11T11:44:05.577Z,1000.75
2023-08-11T11:45:05.624Z,1000.68
2023-08-11T11:46:05.639Z,1000.67
2023-08-11T11:47:05.613Z,1000.59
2023-08-11T11:48:05.593Z,1000.57
2023-08-11T11:49:15.874Z,1000.60
2023-08-11T11:50:05.638Z,1000.60
2023-08-11T11:51:05.550Z,1000.63
2023-08-11T11:52:05.555Z,1000.61
2023-08-11T11:53:05.565Z,1000.58
2023-08-11T11:54:05.572Z,1000.62
2023-08-11T11:55:05.590Z,1000.65
2023-08-11T11:56:05.603Z,1000.65
2023-08-11T11:57:06.271Z,1000.65
2023-08-11T11:58:05.614Z,1000.68
2023-08-11T11:59:05.636Z,1000.65
2023-08-11T12:00:05.660Z,1000.68
2023-08-11T12:01:05.639Z,1000.71
2023-08-11T12:02:05.737Z,1000.70
2023-08-11T12:03:05.683Z,1000.71
2023-08-11T12:04:05.800Z,1000.74
2023-08-11T12:05:05.721Z,1000.73
2023-08-11T12:06:05.700Z,1000.70
2023-08-11T12:07:05.699Z,1000.71
2023-08-11T12:08:05.705Z,1000.67
2023-08-11T12:09:05.710Z,1000.63
2023-08-11T12:10:05.734Z,1000.65
2023-08-11T12:11:05.731Z,1000.60
2023-08-11T12:12:05.732Z,1000.59
2023-08-11T12:13:05.747Z,1000.60
2023-08-11T12:14:05.753Z,1000.61
2023-08-11T12:15:05.762Z,1000.60
2023-08-11T12:16:05.798Z,1000.60
2023-08-11T12:17:05.771Z,1000.63
2023-08-11T12:18:05.815Z,1000.65
2023-08-11T12:19:07.436Z,1000.62
2023-08-11T12:20:05.800Z,1000.57
2023-08-11T12:21:05.804Z,1000.60